sensor_id;sensor_type;location;lat;lon;timestamp;P1;durP1;ratioP1;P2;durP2;ratioP2
64157;SDS011;50449;51.528;5.076;2023-03-01T00:01:03;12.27;;;11.35;;
64157;SDS011;50449;51.528;5.076;2023-03-01T00:03:30;13.32;;;12.43;;
64157;SDS011;50449;51.528;5.076;2023-03-01T00:05:58;11.18;;;10.57;;
64157;SDS011;50449;51.528;5.076;2023-03-01T00:08:24;14.63;;;13.52;;
64157;SDS011;50449;51.528;5.076;2023-03-01T00:10:59;11.85;;;11.15;;
64157;SDS011;50449;51.528;5.076;2023-03-01T00:13:43;13.32;;;12.43;;
64157;SDS011;50449;51.528;5.076;2023-03-01T00:16:11;13.25;;;12.25;;
64157;SDS011;50449;51.528;5.076;2023-03-01T00:18:38;12.45;;;11.68;;
64157;SDS011;50449;51.528;5.076;2023-03-01T00:21:04;13.13;;;12.23;;
64157;SDS011;50449;51.528;5.076;2023-03-01T00:23:30;14.13;;;13.13;;
64157;SDS011;50449;51.528;5.076;2023-03-01T00:25:56;15.55;;;12.52;;
64157;SDS011;50449;51.528;5.076;2023-03-01T00:28:22;15.45;;;14.02;;
64157;SDS011;50449;51.528;5.076;2023-03-01T00:30:47;14.02;;;13.02;;
64157;SDS011;50449;51.528;5.076;2023-03-01T00:33:13;12.60;;;11.68;;
64157;SDS011;50449;51.528;5.076;2023-03-01T00:35:38;12.93;;;11.95;;
64157;SDS011;50449;51.528;5.076;2023-03-01T00:38:04;13.40;;;12.23;;
64157;SDS011;50449;51.528;5.076;2023-03-01T00:40:31;15.70;;;14.20;;
64157;SDS011;50449;51.528;5.076;2023-03-01T00:42:59;13.20;;;12.20;;
64157;SDS011;50449;51.528;5.076;2023-03-01T00:45:24;14.88;;;13.68;;
64157;SDS011;50449;51.528;5.076;2023-03-01T00:47:50;12.02;;;11.23;;
64157;SDS011;50449;51.528;5.076;2023-03-01T00:50:16;12.82;;;11.90;;
64157;SDS011;50449;51.528;5.076;2023-03-01T00:52:43;13.50;;;12.43;;
64157;SDS011;50449;51.528;5.076;2023-03-01T00:55:10;14.07;;;12.75;;
64157;SDS011;50449;51.528;5.076;2023-03-01T00:57:36;15.50;;;13.82;;
64157;SDS011;50449;51.528;5.076;2023-03-01T01:00:02;14.13;;;13.25;;
64157;SDS011;50449;51.528;5.076;2023-03-01T01:02:29;13.20;;;12.23;;
64157;SDS011;50449;51.528;5.076;2023-03-01T01:04:56;13.80;;;12.75;;
64157;SDS011;50449;51.528;5.076;2023-03-01T01:07:22;14.07;;;13.07;;
64157;SDS011;50449;51.528;5.076;2023-03-01T01:09:47;14.30;;;13.35;;
64157;SDS011;50449;51.528;5.076;2023-03-01T01:12:14;12.57;;;11.80;;
64157;SDS011;50449;51.528;5.076;2023-03-01T01:14:39;12.00;;;11.30;;
64157;SDS011;50449;51.528;5.076;2023-03-01T01:17:05;12.35;;;11.57;;
64157;SDS011;50449;51.528;5.076;2023-03-01T01:19:30;14.55;;;13.45;;
64157;SDS011;50449;51.528;5.076;2023-03-01T01:21:56;12.32;;;11.52;;
64157;SDS011;50449;51.528;5.076;2023-03-01T01:24:21;13.50;;;12.48;;
64157;SDS011;50449;51.528;5.076;2023-03-01T01:26:47;12.70;;;11.82;;
64157;SDS011;50449;51.528;5.076;2023-03-01T01:29:12;15.35;;;14.05;;
64157;SDS011;50449;51.528;5.076;2023-03-01T01:31:38;13.50;;;12.45;;
64157;SDS011;50449;51.528;5.076;2023-03-01T01:34:07;12.20;;;11.23;;
64157;SDS011;50449;51.528;5.076;2023-03-01T01:36:34;12.23;;;11.35;;
64157;SDS011;50449;51.528;5.076;2023-03-01T01:39:00;12.95;;;12.15;;
64157;SDS011;50449;51.528;5.076;2023-03-01T01:41:27;13.75;;;12.65;;
64157;SDS011;50449;51.528;5.076;2023-03-01T01:44:11;12.40;;;11.43;;
64157;SDS011;50449;51.528;5.076;2023-03-01T01:46:37;14.55;;;13.38;;
64157;SDS011;50449;51.528;5.076;2023-03-01T01:49:06;13.30;;;12.30;;
64157;SDS011;50449;51.528;5.076;2023-03-01T01:51:39;14.30;;;13.20;;
64157;SDS011;50449;51.528;5.076;2023-03-01T01:54:12;11.38;;;10.68;;
64157;SDS011;50449;51.528;5.076;2023-03-01T01:56:44;11.63;;;10.82;;
64157;SDS011;50449;51.528;5.076;2023-03-01T01:59:15;12.63;;;11.82;;
64157;SDS011;50449;51.528;5.076;2023-03-01T02:01:41;12.30;;;11.43;;
64157;SDS011;50449;51.528;5.076;2023-03-01T02:04:07;11.52;;;10.75;;
64157;SDS011;50449;51.528;5.076;2023-03-01T02:06:44;13.38;;;12.45;;
64157;SDS011;50449;51.528;5.076;2023-03-01T02:09:16;11.88;;;10.95;;
64157;SDS011;50449;51.528;5.076;2023-03-01T02:11:43;12.63;;;11.75;;
64157;SDS011;50449;51.528;5.076;2023-03-01T02:14:09;12.98;;;12.18;;
64157;SDS011;50449;51.528;5.076;2023-03-01T02:16:35;14.95;;;13.65;;
64157;SDS011;50449;51.528;5.076;2023-03-01T02:19:00;12.75;;;11.95;;
64157;SDS011;50449;51.528;5.076;2023-03-01T02:24:13;12.68;;;11.88;;
64157;SDS011;50449;51.528;5.076;2023-03-01T02:26:42;13.65;;;12.65;;
64157;SDS011;50449;51.528;5.076;2023-03-01T02:29:13;14.63;;;13.45;;
64157;SDS011;50449;51.528;5.076;2023-03-01T02:31:38;14.98;;;13.82;;
64157;SDS011;50449;51.528;5.076;2023-03-01T02:34:07;13.38;;;12.57;;
64157;SDS011;50449;51.528;5.076;2023-03-01T02:39:07;12.80;;;11.75;;
64157;SDS011;50449;51.528;5.076;2023-03-01T02:41:39;13.27;;;12.27;;
64157;SDS011;50449;51.528;5.076;2023-03-01T02:44:07;12.43;;;11.52;;
64157;SDS011;50449;51.528;5.076;2023-03-01T02:46:41;11.50;;;10.63;;
64157;SDS011;50449;51.528;5.076;2023-03-01T02:57:31;12.57;;;11.65;;
64157;SDS011;50449;51.528;5.076;2023-03-01T02:59:59;11.55;;;10.75;;
64157;SDS011;50449;51.528;5.076;2023-03-01T03:02:32;11.85;;;11.05;;
64157;SDS011;50449;51.528;5.076;2023-03-01T03:05:15;12.13;;;11.27;;
64157;SDS011;50449;51.528;5.076;2023-03-01T03:07:43;13.75;;;12.60;;
64157;SDS011;50449;51.528;5.076;2023-03-01T03:10:15;12.77;;;11.88;;
64157;SDS011;50449;51.528;5.076;2023-03-01T03:12:41;15.25;;;14.00;;
64157;SDS011;50449;51.528;5.076;2023-03-01T03:15:07;13.48;;;12.45;;
64157;SDS011;50449;51.528;5.076;2023-03-01T03:17:38;12.40;;;11.30;;
64157;SDS011;50449;51.528;5.076;2023-03-01T03:20:06;15.02;;;13.77;;
64157;SDS011;50449;51.528;5.076;2023-03-01T03:22:37;12.52;;;11.50;;
64157;SDS011;50449;51.528;5.076;2023-03-01T03:25:07;13.30;;;12.30;;
64157;SDS011;50449;51.528;5.076;2023-03-01T03:27:40;13.43;;;12.32;;
64157;SDS011;50449;51.528;5.076;2023-03-01T03:30:09;10.63;;;9.88;;
64157;SDS011;50449;51.528;5.076;2023-03-01T03:32:37;12.60;;;11.63;;
64157;SDS011;50449;51.528;5.076;2023-03-01T03:35:04;12.90;;;12.00;;
64157;SDS011;50449;51.528;5.076;2023-03-01T03:37:43;14.40;;;13.20;;
64157;SDS011;50449;51.528;5.076;2023-03-01T03:40:27;13.05;;;12.18;;
64157;SDS011;50449;51.528;5.076;2023-03-01T03:42:54;13.73;;;12.60;;
64157;SDS011;50449;51.528;5.076;2023-03-01T03:45:20;13.43;;;12.35;;
64157;SDS011;50449;51.528;5.076;2023-03-01T03:47:46;12.98;;;11.98;;
64157;SDS011;50449;51.528;5.076;2023-03-01T03:50:12;12.38;;;11.18;;
64157;SDS011;50449;51.528;5.076;2023-03-01T03:52:40;13.73;;;12.73;;
64157;SDS011;50449;51.528;5.076;2023-03-01T03:55:06;12.68;;;11.88;;
64157;SDS011;50449;51.528;5.076;2023-03-01T03:57:39;15.48;;;11.52;;
64157;SDS011;50449;51.528;5.076;2023-03-01T04:00:07;10.27;;;9.65;;
64157;SDS011;50449;51.528;5.076;2023-03-01T04:02:39;16.00;;;14.35;;
64157;SDS011;50449;51.528;5.076;2023-03-01T04:05:06;12.57;;;11.57;;
64157;SDS011;50449;51.528;5.076;2023-03-01T04:07:33;11.80;;;10.98;;
64157;SDS011;50449;51.528;5.076;2023-03-01T04:09:59;11.93;;;10.90;;
64157;SDS011;50449;51.528;5.076;2023-03-01T04:12:24;9.73;;;9.18;;
64157;SDS011;50449;51.528;5.076;2023-03-01T04:14:50;11.93;;;10.60;;
64157;SDS011;50449;51.528;5.076;2023-03-01T04:17:15;10.85;;;10.15;;
64157;SDS011;50449;51.528;5.076;2023-03-01T04:19:41;13.60;;;12.20;;
64157;SDS011;50449;51.528;5.076;2023-03-01T04:22:09;10.63;;;10.02;;
64157;SDS011;50449;51.528;5.076;2023-03-01T04:24:36;12.63;;;11.80;;
64157;SDS011;50449;51.528;5.076;2023-03-01T04:27:01;12.10;;;11.25;;
64157;SDS011;50449;51.528;5.076;2023-03-01T04:29:27;10.95;;;10.23;;
64157;SDS011;50449;51.528;5.076;2023-03-01T04:31:53;13.75;;;12.77;;
64157;SDS011;50449;51.528;5.076;2023-03-01T04:34:18;9.32;;;8.77;;
64157;SDS011;50449;51.528;5.076;2023-03-01T04:36:44;14.10;;;12.98;;
64157;SDS011;50449;51.528;5.076;2023-03-01T04:39:09;11.43;;;10.82;;
64157;SDS011;50449;51.528;5.076;2023-03-01T04:41:38;13.65;;;12.55;;
64157;SDS011;50449;51.528;5.076;2023-03-01T04:44:04;11.18;;;10.48;;
64157;SDS011;50449;51.528;5.076;2023-03-01T04:46:30;11.15;;;10.45;;
64157;SDS011;50449;51.528;5.076;2023-03-01T04:48:56;12.80;;;11.63;;
64157;SDS011;50449;51.528;5.076;2023-03-01T04:51:21;11.30;;;10.60;;
64157;SDS011;50449;51.528;5.076;2023-03-01T04:53:47;13.35;;;12.18;;
64157;SDS011;50449;51.528;5.076;2023-03-01T04:56:13;9.57;;;8.98;;
64157;SDS011;50449;51.528;5.076;2023-03-01T04:58:38;11.15;;;10.45;;
64157;SDS011;50449;51.528;5.076;2023-03-01T05:01:08;12.48;;;11.68;;
64157;SDS011;50449;51.528;5.076;2023-03-01T05:03:40;11.63;;;10.82;;
64157;SDS011;50449;51.528;5.076;2023-03-01T05:06:06;10.45;;;9.75;;
64157;SDS011;50449;51.528;5.076;2023-03-01T05:08:31;11.82;;;10.82;;
64157;SDS011;50449;51.528;5.076;2023-03-01T05:10:59;11.18;;;10.43;;
64157;SDS011;50449;51.528;5.076;2023-03-01T05:13:24;13.02;;;11.93;;
64157;SDS011;50449;51.528;5.076;2023-03-01T05:15:54;14.18;;;12.88;;
64157;SDS011;50449;51.528;5.076;2023-03-01T05:18:21;12.52;;;11.50;;
64157;SDS011;50449;51.528;5.076;2023-03-01T05:20:50;14.95;;;13.55;;
64157;SDS011;50449;51.528;5.076;2023-03-01T05:23:17;11.07;;;10.40;;
64157;SDS011;50449;51.528;5.076;2023-03-01T05:25:43;11.63;;;10.75;;
64157;SDS011;50449;51.528;5.076;2023-03-01T05:28:10;13.73;;;12.70;;
64157;SDS011;50449;51.528;5.076;2023-03-01T05:30:36;12.23;;;11.43;;
64157;SDS011;50449;51.528;5.076;2023-03-01T05:33:04;13.20;;;12.30;;
64157;SDS011;50449;51.528;5.076;2023-03-01T05:35:29;13.00;;;11.95;;
64157;SDS011;50449;51.528;5.076;2023-03-01T05:37:57;13.10;;;12.07;;
64157;SDS011;50449;51.528;5.076;2023-03-01T05:40:23;11.40;;;10.60;;
64157;SDS011;50449;51.528;5.076;2023-03-01T05:42:53;13.88;;;12.73;;
64157;SDS011;50449;51.528;5.076;2023-03-01T05:45:20;11.75;;;10.88;;
64157;SDS011;50449;51.528;5.076;2023-03-01T05:47:47;11.93;;;11.15;;
64157;SDS011;50449;51.528;5.076;2023-03-01T05:50:15;11.13;;;10.50;;
64157;SDS011;50449;51.528;5.076;2023-03-01T05:53:12;13.05;;;12.15;;
64157;SDS011;50449;51.528;5.076;2023-03-01T05:55:40;12.18;;;11.38;;
64157;SDS011;50449;51.528;5.076;2023-03-01T05:58:07;12.25;;;11.25;;
64157;SDS011;50449;51.528;5.076;2023-03-01T06:00:35;13.70;;;12.63;;
64157;SDS011;50449;51.528;5.076;2023-03-01T06:03:01;13.75;;;12.50;;
64157;SDS011;50449;51.528;5.076;2023-03-01T06:05:27;11.38;;;10.60;;
64157;SDS011;50449;51.528;5.076;2023-03-01T06:07:53;11.52;;;10.55;;
64157;SDS011;50449;51.528;5.076;2023-03-01T06:10:19;12.57;;;11.70;;
64157;SDS011;50449;51.528;5.076;2023-03-01T06:12:46;13.45;;;11.32;;
64157;SDS011;50449;51.528;5.076;2023-03-01T06:15:12;11.00;;;10.40;;
64157;SDS011;50449;51.528;5.076;2023-03-01T06:17:39;10.95;;;10.25;;
64157;SDS011;50449;51.528;5.076;2023-03-01T06:20:07;12.82;;;12.00;;
64157;SDS011;50449;51.528;5.076;2023-03-01T06:22:36;11.48;;;10.77;;
64157;SDS011;50449;51.528;5.076;2023-03-01T06:25:02;12.40;;;11.50;;
64157;SDS011;50449;51.528;5.076;2023-03-01T06:27:27;10.10;;;9.50;;
64157;SDS011;50449;51.528;5.076;2023-03-01T06:29:53;13.63;;;12.63;;
64157;SDS011;50449;51.528;5.076;2023-03-01T06:32:18;10.82;;;9.90;;
64157;SDS011;50449;51.528;5.076;2023-03-01T06:34:44;10.20;;;9.60;;
64157;SDS011;50449;51.528;5.076;2023-03-01T06:37:10;11.15;;;10.27;;
64157;SDS011;50449;51.528;5.076;2023-03-01T06:39:35;9.77;;;9.18;;
64157;SDS011;50449;51.528;5.076;2023-03-01T06:42:00;12.25;;;11.25;;
64157;SDS011;50449;51.528;5.076;2023-03-01T06:44:26;10.25;;;9.55;;
64157;SDS011;50449;51.528;5.076;2023-03-01T06:46:51;12.00;;;10.93;;
64157;SDS011;50449;51.528;5.076;2023-03-01T06:49:17;13.60;;;12.50;;
64157;SDS011;50449;51.528;5.076;2023-03-01T06:51:43;11.63;;;10.70;;
64157;SDS011;50449;51.528;5.076;2023-03-01T06:54:09;11.43;;;10.52;;
64157;SDS011;50449;51.528;5.076;2023-03-01T06:56:35;11.68;;;10.82;;
64157;SDS011;50449;51.528;5.076;2023-03-01T06:59:01;13.13;;;11.80;;
64157;SDS011;50449;51.528;5.076;2023-03-01T07:01:27;12.82;;;10.55;;
64157;SDS011;50449;51.528;5.076;2023-03-01T07:03:53;13.48;;;11.98;;
64157;SDS011;50449;51.528;5.076;2023-03-01T07:06:18;12.35;;;11.07;;
64157;SDS011;50449;51.528;5.076;2023-03-01T07:08:44;11.73;;;10.95;;
64157;SDS011;50449;51.528;5.076;2023-03-01T07:11:09;11.85;;;10.95;;
64157;SDS011;50449;51.528;5.076;2023-03-01T07:13:35;10.50;;;9.90;;
64157;SDS011;50449;51.528;5.076;2023-03-01T07:16:00;11.73;;;10.57;;
64157;SDS011;50449;51.528;5.076;2023-03-01T07:18:26;11.57;;;10.77;;
64157;SDS011;50449;51.528;5.076;2023-03-01T07:20:52;12.00;;;10.75;;
64157;SDS011;50449;51.528;5.076;2023-03-01T07:23:17;13.68;;;12.68;;
64157;SDS011;50449;51.528;5.076;2023-03-01T07:25:43;11.48;;;10.50;;
64157;SDS011;50449;51.528;5.076;2023-03-01T07:28:08;13.77;;;12.52;;
64157;SDS011;50449;51.528;5.076;2023-03-01T07:30:33;16.35;;;12.75;;
64157;SDS011;50449;51.528;5.076;2023-03-01T07:32:59;11.75;;;10.82;;
64157;SDS011;50449;51.528;5.076;2023-03-01T07:35:25;14.43;;;13.45;;
64157;SDS011;50449;51.528;5.076;2023-03-01T07:37:51;12.65;;;11.32;;
64157;SDS011;50449;51.528;5.076;2023-03-01T07:40:17;16.52;;;15.02;;
64157;SDS011;50449;51.528;5.076;2023-03-01T07:42:43;13.52;;;12.48;;
64157;SDS011;50449;51.528;5.076;2023-03-01T07:45:09;12.65;;;11.43;;
64157;SDS011;50449;51.528;5.076;2023-03-01T07:47:35;13.48;;;12.32;;
64157;SDS011;50449;51.528;5.076;2023-03-01T07:50:00;13.38;;;11.93;;
64157;SDS011;50449;51.528;5.076;2023-03-01T07:52:26;11.02;;;10.35;;
64157;SDS011;50449;51.528;5.076;2023-03-01T07:54:52;12.05;;;11.05;;
64157;SDS011;50449;51.528;5.076;2023-03-01T07:57:17;12.13;;;11.13;;
64157;SDS011;50449;51.528;5.076;2023-03-01T07:59:43;11.35;;;10.45;;
64157;SDS011;50449;51.528;5.076;2023-03-01T08:02:09;12.55;;;11.45;;
64157;SDS011;50449;51.528;5.076;2023-03-01T08:04:35;15.02;;;13.45;;
64157;SDS011;50449;51.528;5.076;2023-03-01T08:07:01;15.80;;;14.35;;
64157;SDS011;50449;51.528;5.076;2023-03-01T08:09:29;13.50;;;12.30;;
64157;SDS011;50449;51.528;5.076;2023-03-01T08:11:55;16.35;;;13.07;;
64157;SDS011;50449;51.528;5.076;2023-03-01T08:14:21;14.27;;;12.98;;
64157;SDS011;50449;51.528;5.076;2023-03-01T08:16:48;10.98;;;10.07;;
64157;SDS011;50449;51.528;5.076;2023-03-01T08:19:14;14.88;;;13.27;;
64157;SDS011;50449;51.528;5.076;2023-03-01T08:21:40;12.35;;;11.20;;
64157;SDS011;50449;51.528;5.076;2023-03-01T08:24:05;22.45;;;14.73;;
64157;SDS011;50449;51.528;5.076;2023-03-01T08:26:32;14.77;;;13.45;;
64157;SDS011;50449;51.528;5.076;2023-03-01T08:28:59;14.25;;;12.85;;
64157;SDS011;50449;51.528;5.076;2023-03-01T08:31:26;13.65;;;12.48;;
64157;SDS011;50449;51.528;5.076;2023-03-01T08:33:53;14.13;;;12.85;;
64157;SDS011;50449;51.528;5.076;2023-03-01T08:36:22;13.80;;;12.60;;
64157;SDS011;50449;51.528;5.076;2023-03-01T08:38:52;15.85;;;14.35;;
64157;SDS011;50449;51.528;5.076;2023-03-01T08:41:17;24.42;;;14.85;;
64157;SDS011;50449;51.528;5.076;2023-03-01T08:43:43;13.80;;;12.45;;
64157;SDS011;50449;51.528;5.076;2023-03-01T08:46:09;12.20;;;11.13;;
64157;SDS011;50449;51.528;5.076;2023-03-01T08:48:35;13.77;;;12.45;;
64157;SDS011;50449;51.528;5.076;2023-03-01T08:51:14;13.43;;;12.27;;
64157;SDS011;50449;51.528;5.076;2023-03-01T08:53:43;15.55;;;12.95;;
64157;SDS011;50449;51.528;5.076;2023-03-01T08:56:09;11.48;;;10.50;;
64157;SDS011;50449;51.528;5.076;2023-03-01T08:58:35;12.52;;;10.50;;
64157;SDS011;50449;51.528;5.076;2023-03-01T09:01:01;16.08;;;14.40;;
64157;SDS011;50449;51.528;5.076;2023-03-01T09:03:32;14.40;;;12.95;;
64157;SDS011;50449;51.528;5.076;2023-03-01T09:06:00;13.07;;;11.93;;
64157;SDS011;50449;51.528;5.076;2023-03-01T09:08:27;14.07;;;12.80;;
64157;SDS011;50449;51.528;5.076;2023-03-01T09:10:52;12.82;;;11.70;;
64157;SDS011;50449;51.528;5.076;2023-03-01T09:13:18;17.10;;;15.10;;
64157;SDS011;50449;51.528;5.076;2023-03-01T09:15:43;15.93;;;13.55;;
64157;SDS011;50449;51.528;5.076;2023-03-01T09:18:09;14.95;;;13.45;;
64157;SDS011;50449;51.528;5.076;2023-03-01T09:20:34;13.10;;;12.02;;
64157;SDS011;50449;51.528;5.076;2023-03-01T09:23:00;13.90;;;12.70;;
64157;SDS011;50449;51.528;5.076;2023-03-01T09:25:25;16.38;;;13.93;;
64157;SDS011;50449;51.528;5.076;2023-03-01T09:27:51;14.95;;;13.57;;
64157;SDS011;50449;51.528;5.076;2023-03-01T09:30:17;13.30;;;12.02;;
64157;SDS011;50449;51.528;5.076;2023-03-01T09:32:43;14.65;;;13.35;;
64157;SDS011;50449;51.528;5.076;2023-03-01T09:35:09;21.05;;;16.40;;
64157;SDS011;50449;51.528;5.076;2023-03-01T09:37:36;11.90;;;10.80;;
64157;SDS011;50449;51.528;5.076;2023-03-01T09:40:15;14.23;;;12.52;;
64157;SDS011;50449;51.528;5.076;2023-03-01T09:42:46;16.67;;;14.82;;
64157;SDS011;50449;51.528;5.076;2023-03-01T09:45:27;17.55;;;15.52;;
64157;SDS011;50449;51.528;5.076;2023-03-01T09:47:59;11.15;;;10.27;;
64157;SDS011;50449;51.528;5.076;2023-03-01T09:50:26;13.40;;;12.10;;
64157;SDS011;50449;51.528;5.076;2023-03-01T09:55:31;14.40;;;13.00;;
64157;SDS011;50449;51.528;5.076;2023-03-01T10:00:47;13.60;;;12.35;;
64157;SDS011;50449;51.528;5.076;2023-03-01T10:03:16;18.03;;;16.23;;
64157;SDS011;50449;51.528;5.076;2023-03-01T10:05:52;13.68;;;12.27;;
64157;SDS011;50449;51.528;5.076;2023-03-01T10:11:27;20.38;;;16.60;;
64157;SDS011;50449;51.528;5.076;2023-03-01T10:16:48;14.32;;;13.02;;
64157;SDS011;50449;51.528;5.076;2023-03-01T10:22:15;18.33;;;16.13;;
64157;SDS011;50449;51.528;5.076;2023-03-01T10:24:43;14.55;;;13.00;;
64157;SDS011;50449;51.528;5.076;2023-03-01T10:30:19;15.20;;;13.65;;
64157;SDS011;50449;51.528;5.076;2023-03-01T10:32:41;15.55;;;13.95;;
64157;SDS011;50449;51.528;5.076;2023-03-01T10:37:58;14.90;;;13.50;;
64157;SDS011;50449;51.528;5.076;2023-03-01T10:40:29;10.63;;;9.73;;
64157;SDS011;50449;51.528;5.076;2023-03-01T10:42:57;14.10;;;12.65;;
64157;SDS011;50449;51.528;5.076;2023-03-01T10:53:34;13.07;;;11.88;;
64157;SDS011;50449;51.528;5.076;2023-03-01T11:01:30;15.15;;;13.90;;
64157;SDS011;50449;51.528;5.076;2023-03-01T11:06:35;12.93;;;11.90;;
64157;SDS011;50449;51.528;5.076;2023-03-01T11:09:18;14.52;;;12.85;;
64157;SDS011;50449;51.528;5.076;2023-03-01T11:11:51;15.63;;;14.23;;
64157;SDS011;50449;51.528;5.076;2023-03-01T11:14:20;15.55;;;13.57;;
64157;SDS011;50449;51.528;5.076;2023-03-01T11:16:48;15.13;;;13.90;;
64157;SDS011;50449;51.528;5.076;2023-03-01T11:19:22;14.90;;;13.60;;
64157;SDS011;50449;51.528;5.076;2023-03-01T11:24:51;12.45;;;11.38;;
64157;SDS011;50449;51.528;5.076;2023-03-01T11:27:26;14.40;;;12.93;;
64157;SDS011;50449;51.528;5.076;2023-03-01T11:30:09;11.65;;;10.85;;
64157;SDS011;50449;51.528;5.076;2023-03-01T11:32:45;15.13;;;13.35;;
64157;SDS011;50449;51.528;5.076;2023-03-01T11:35:26;12.27;;;11.27;;
64157;SDS011;50449;51.528;5.076;2023-03-01T11:40:47;15.27;;;13.88;;
64157;SDS011;50449;51.528;5.076;2023-03-01T11:43:26;14.85;;;13.40;;
64157;SDS011;50449;51.528;5.076;2023-03-01T11:49:00;15.23;;;13.68;;
64157;SDS011;50449;51.528;5.076;2023-03-01T11:58:21;15.45;;;14.05;;
64157;SDS011;50449;51.528;5.076;2023-03-01T12:12:00;15.30;;;13.95;;
64157;SDS011;50449;51.528;5.076;2023-03-01T12:20:34;16.55;;;14.95;;
64157;SDS011;50449;51.528;5.076;2023-03-01T12:28:34;17.88;;;16.23;;
64157;SDS011;50449;51.528;5.076;2023-03-01T12:34:11;15.05;;;13.68;;
64157;SDS011;50449;51.528;5.076;2023-03-01T12:39:51;14.27;;;12.95;;
64157;SDS011;50449;51.528;5.076;2023-03-01T12:42:38;16.88;;;14.88;;
64157;SDS011;50449;51.528;5.076;2023-03-01T12:48:19;13.65;;;12.50;;
64157;SDS011;50449;51.528;5.076;2023-03-01T12:50:48;16.13;;;14.23;;
64157;SDS011;50449;51.528;5.076;2023-03-01T12:53:20;14.75;;;13.45;;
64157;SDS011;50449;51.528;5.076;2023-03-01T12:55:49;19.92;;;16.00;;
64157;SDS011;50449;51.528;5.076;2023-03-01T13:00:45;15.52;;;14.02;;
64157;SDS011;50449;51.528;5.076;2023-03-01T13:03:27;17.95;;;15.73;;
64157;SDS011;50449;51.528;5.076;2023-03-01T13:08:22;16.63;;;15.15;;
64157;SDS011;50449;51.528;5.076;2023-03-01T13:10:54;14.38;;;12.98;;
64157;SDS011;50449;51.528;5.076;2023-03-01T13:13:26;18.77;;;16.58;;
64157;SDS011;50449;51.528;5.076;2023-03-01T13:15:53;22.25;;;18.15;;
64157;SDS011;50449;51.528;5.076;2023-03-01T13:20:48;17.42;;;15.93;;
64157;SDS011;50449;51.528;5.076;2023-03-01T13:31:55;15.10;;;13.88;;
64157;SDS011;50449;51.528;5.076;2023-03-01T13:33:59;19.00;;;17.17;;
64157;SDS011;50449;51.528;5.076;2023-03-01T13:52:33;18.05;;;14.35;;
64157;SDS011;50449;51.528;5.076;2023-03-01T13:54:59;16.27;;;14.68;;
64157;SDS011;50449;51.528;5.076;2023-03-01T13:57:35;16.90;;;15.40;;
64157;SDS011;50449;51.528;5.076;2023-03-01T14:00:04;16.70;;;15.32;;
64157;SDS011;50449;51.528;5.076;2023-03-01T14:02:30;18.25;;;16.17;;
64157;SDS011;50449;51.528;5.076;2023-03-01T14:04:59;18.85;;;16.83;;
64157;SDS011;50449;51.528;5.076;2023-03-01T14:07:26;14.38;;;13.15;;
64157;SDS011;50449;51.528;5.076;2023-03-01T14:10:02;20.10;;;17.98;;
64157;SDS011;50449;51.528;5.076;2023-03-01T14:14:56;16.73;;;15.27;;
64157;SDS011;50449;51.528;5.076;2023-03-01T14:22:53;16.42;;;14.95;;
64157;SDS011;50449;51.528;5.076;2023-03-01T14:25:25;16.70;;;15.07;;
64157;SDS011;50449;51.528;5.076;2023-03-01T14:30:32;18.70;;;16.75;;
64157;SDS011;50449;51.528;5.076;2023-03-01T14:33:05;15.30;;;13.93;;
64157;SDS011;50449;51.528;5.076;2023-03-01T14:35:42;16.40;;;14.93;;
64157;SDS011;50449;51.528;5.076;2023-03-01T14:38:19;17.00;;;15.38;;
64157;SDS011;50449;51.528;5.076;2023-03-01T14:40:46;16.33;;;14.60;;
64157;SDS011;50449;51.528;5.076;2023-03-01T14:43:17;14.35;;;13.25;;
64157;SDS011;50449;51.528;5.076;2023-03-01T14:45:48;19.50;;;17.38;;
64157;SDS011;50449;51.528;5.076;2023-03-01T14:48:15;16.00;;;14.55;;
64157;SDS011;50449;51.528;5.076;2023-03-01T14:50:42;19.17;;;16.40;;
64157;SDS011;50449;51.528;5.076;2023-03-01T14:53:42;16.33;;;14.63;;
64157;SDS011;50449;51.528;5.076;2023-03-01T14:56:01;15.38;;;13.95;;
64157;SDS011;50449;51.528;5.076;2023-03-01T14:58:28;16.27;;;14.77;;
64157;SDS011;50449;51.528;5.076;2023-03-01T15:00:54;20.50;;;17.55;;
64157;SDS011;50449;51.528;5.076;2023-03-01T15:03:28;17.30;;;15.57;;
64157;SDS011;50449;51.528;5.076;2023-03-01T15:05:58;18.15;;;16.40;;
64157;SDS011;50449;51.528;5.076;2023-03-01T15:08:26;16.43;;;14.83;;
64157;SDS011;50449;51.528;5.076;2023-03-01T15:13:38;18.98;;;17.02;;
64157;SDS011;50449;51.528;5.076;2023-03-01T15:18:36;18.83;;;16.88;;
64157;SDS011;50449;51.528;5.076;2023-03-01T15:21:22;17.02;;;15.48;;
64157;SDS011;50449;51.528;5.076;2023-03-01T15:23:51;20.48;;;18.33;;
64157;SDS011;50449;51.528;5.076;2023-03-01T15:26:33;19.85;;;15.38;;
64157;SDS011;50449;51.528;5.076;2023-03-01T15:29:04;13.93;;;12.77;;
64157;SDS011;50449;51.528;5.076;2023-03-01T15:31:31;16.83;;;15.30;;
64157;SDS011;50449;51.528;5.076;2023-03-01T15:34:25;14.60;;;13.48;;
64157;SDS011;50449;51.528;5.076;2023-03-01T15:37:00;22.02;;;19.70;;
64157;SDS011;50449;51.528;5.076;2023-03-01T15:42:02;16.33;;;14.73;;
64157;SDS011;50449;51.528;5.076;2023-03-01T15:44:30;18.23;;;15.52;;
64157;SDS011;50449;51.528;5.076;2023-03-01T15:46:58;18.30;;;16.42;;
64157;SDS011;50449;51.528;5.076;2023-03-01T15:49:40;15.15;;;13.85;;
64157;SDS011;50449;51.528;5.076;2023-03-01T15:52:12;16.63;;;15.32;;
64157;SDS011;50449;51.528;5.076;2023-03-01T15:54:44;16.67;;;15.15;;
64157;SDS011;50449;51.528;5.076;2023-03-01T15:57:13;18.90;;;17.05;;
64157;SDS011;50449;51.528;5.076;2023-03-01T15:59:40;19.25;;;17.38;;
64157;SDS011;50449;51.528;5.076;2023-03-01T16:02:12;16.02;;;14.52;;
64157;SDS011;50449;51.528;5.076;2023-03-01T16:07:04;16.60;;;14.90;;
64157;SDS011;50449;51.528;5.076;2023-03-01T16:09:29;18.00;;;16.15;;
64157;SDS011;50449;51.528;5.076;2023-03-01T16:11:55;15.07;;;13.68;;
64157;SDS011;50449;51.528;5.076;2023-03-01T16:14:20;16.60;;;14.88;;
64157;SDS011;50449;51.528;5.076;2023-03-01T16:16:47;18.35;;;16.70;;
64157;SDS011;50449;51.528;5.076;2023-03-01T16:19:15;17.40;;;15.57;;
64157;SDS011;50449;51.528;5.076;2023-03-01T16:21:41;20.33;;;18.17;;
64157;SDS011;50449;51.528;5.076;2023-03-01T16:24:08;17.20;;;15.88;;
64157;SDS011;50449;51.528;5.076;2023-03-01T16:26:34;18.50;;;16.83;;
64157;SDS011;50449;51.528;5.076;2023-03-01T16:29:02;17.92;;;16.33;;
64157;SDS011;50449;51.528;5.076;2023-03-01T16:31:27;18.17;;;15.18;;
64157;SDS011;50449;51.528;5.076;2023-03-01T16:33:56;23.73;;;20.15;;
64157;SDS011;50449;51.528;5.076;2023-03-01T16:36:24;24.08;;;17.33;;
64157;SDS011;50449;51.528;5.076;2023-03-01T16:38:51;20.40;;;18.30;;
64157;SDS011;50449;51.528;5.076;2023-03-01T16:41:18;17.60;;;16.00;;
64157;SDS011;50449;51.528;5.076;2023-03-01T16:43:45;20.53;;;18.67;;
64157;SDS011;50449;51.528;5.076;2023-03-01T16:46:12;16.60;;;15.25;;
64157;SDS011;50449;51.528;5.076;2023-03-01T16:48:47;18.42;;;16.35;;
64157;SDS011;50449;51.528;5.076;2023-03-01T16:51:13;17.08;;;15.52;;
64157;SDS011;50449;51.528;5.076;2023-03-01T16:53:39;15.65;;;14.40;;
64157;SDS011;50449;51.528;5.076;2023-03-01T16:56:06;16.05;;;14.85;;
64157;SDS011;50449;51.528;5.076;2023-03-01T16:58:35;23.48;;;17.27;;